Time;durP1;ratioP1;P1;durP2;ratioP2;P2;SDS_P1;SDS_P2;PMS_P1;PMS_P2;Temp;Humidity;BMP_temperature;BMP_pressure;BME280_temperature;BME280_humidity;BME280_pressure;Samples;Min_cycle;Max_cycle;Signal;HPM_P1;HPM_P2
2021/07/10 00:00:18;;;;;;;6.22;1.98;;;45.60;25.90;;;;;;5047975;28;20068;-61
2021/07/10 00:02:45;;;;;;;17.08;2.08;;;45.60;26.00;;;;;;5050422;28;20068;-63
2021/07/10 00:05:14;;;;;;;7.55;2.38;;;45.50;25.70;;;;;;5050647;28;20070;-62
2021/07/10 00:07:42;;;;;;;7.18;2.00;;;45.60;25.60;;;;;;5050552;28;20070;-62
2021/07/10 00:10:12;;;;;;;7.15;1.65;;;45.50;25.70;;;;;;5050288;28;20144;-61
2021/07/10 00:12:39;;;;;;;11.07;1.80;;;45.50;26.00;;;;;;5051087;28;20074;-62
2021/07/10 00:15:09;;;;;;;8.80;2.35;;;45.50;25.90;;;;;;5051281;28;20125;-62
2021/07/10 00:17:36;;;;;;;8.15;1.98;;;45.40;25.70;;;;;;5050034;28;20117;-62
2021/07/10 00:20:05;;;;;;;11.20;1.80;;;45.40;25.80;;;;;;5050874;28;20072;-63
2021/07/10 00:22:31;;;;;;;9.30;1.92;;;45.30;25.70;;;;;;5051218;28;20428;-61
2021/07/10 00:24:58;;;;;;;11.73;2.13;;;45.40;26.00;;;;;;5051240;28;20837;-60
2021/07/10 00:27:24;;;;;;;8.25;1.90;;;45.20;26.30;;;;;;5050735;28;20525;-62
2021/07/10 00:29:51;;;;;;;10.43;2.33;;;45.10;26.50;;;;;;5050626;28;20448;-60
2021/07/10 00:32:17;;;;;;;10.10;1.90;;;45.00;26.00;;;;;;5051000;28;20086;-61
2021/07/10 00:34:44;;;;;;;12.18;2.03;;;45.00;26.20;;;;;;5050792;28;20150;-60
2021/07/10 00:37:10;;;;;;;9.27;1.58;;;45.00;26.50;;;;;;5049753;28;20567;-60
2021/07/10 00:39:37;;;;;;;8.18;1.70;;;44.90;26.50;;;;;;5050167;28;20072;-62
2021/07/10 00:42:04;;;;;;;7.70;1.45;;;44.90;26.80;;;;;;5050614;28;20076;-61
2021/07/10 00:44:30;;;;;;;8.23;2.15;;;44.90;26.50;;;;;;5050406;28;20451;-61
2021/07/10 00:46:57;;;;;;;11.23;1.98;;;44.70;26.70;;;;;;5050186;28;20156;-62
2021/07/10 00:49:23;;;;;;;9.65;1.98;;;44.70;26.80;;;;;;5051713;28;20070;-61
2021/07/10 00:51:50;;;;;;;8.82;1.55;;;44.70;26.90;;;;;;5049209;28;20139;-62
2021/07/10 00:54:16;;;;;;;9.23;1.95;;;44.60;26.80;;;;;;5049880;28;20070;-61
2021/07/10 00:56:45;;;;;;;11.60;1.95;;;44.40;27.00;;;;;;5050193;28;20094;-62
2021/07/10 00:59:14;;;;;;;10.13;2.28;;;44.50;27.20;;;;;;5049279;28;20532;-62
2021/07/10 01:01:43;;;;;;;12.57;2.50;;;44.50;26.90;;;;;;5050092;28;20073;-62
2021/07/10 01:04:09;;;;;;;15.50;2.25;;;44.50;27.00;;;;;;5050358;28;20073;-60
2021/07/10 01:06:39;;;;;;;10.45;2.22;;;44.40;27.10;;;;;;5050836;28;20446;-61
2021/07/10 01:09:06;;;;;;;14.98;2.30;;;44.30;26.90;;;;;;5033502;28;20074;-64
2021/07/10 01:11:33;;;;;;;12.32;2.08;;;44.30;27.00;;;;;;5050274;28;20518;-62
2021/07/10 01:14:00;;;;;;;9.05;1.83;;;44.00;27.00;;;;;;5049433;28;20092;-61
2021/07/10 01:16:27;;;;;;;12.52;1.58;;;43.80;27.10;;;;;;5049977;28;20093;-59
2021/07/10 01:18:53;;;;;;;14.43;1.92;;;43.80;27.20;;;;;;5051459;28;20538;-61
2021/07/10 01:21:20;;;;;;;16.48;2.17;;;43.80;27.10;;;;;;5047142;28;20081;-61
2021/07/10 01:23:48;;;;;;;18.15;1.70;;;43.80;27.10;;;;;;5050277;28;20542;-61
2021/07/10 01:26:15;;;;;;;9.52;1.85;;;43.70;27.30;;;;;;5049936;28;20527;-60
2021/07/10 01:28:41;;;;;;;15.50;2.17;;;43.70;27.40;;;;;;5048826;28;20147;-61
2021/07/10 01:31:09;;;;;;;12.45;2.08;;;43.60;26.90;;;;;;5050074;28;20070;-61
2021/07/10 01:33:37;;;;;;;11.23;1.98;;;43.50;27.30;;;;;;5050004;28;20115;-61
2021/07/10 01:36:04;;;;;;;8.55;1.77;;;43.40;27.20;;;;;;5049616;28;20097;-60
2021/07/10 01:38:31;;;;;;;14.60;2.28;;;43.40;27.40;;;;;;5050239;28;20090;-61
2021/07/10 01:40:58;;;;;;;11.45;2.20;;;43.30;27.50;;;;;;5050184;28;20069;-62
2021/07/10 01:43:25;;;;;;;10.32;1.67;;;43.20;27.20;;;;;;5053144;28;20214;-62
2021/07/10 01:45:51;;;;;;;14.32;2.47;;;43.10;27.70;;;;;;5054415;28;20066;-61
2021/07/10 01:48:20;;;;;;;13.38;2.00;;;43.00;27.60;;;;;;5053655;28;20542;-60
2021/07/10 01:50:47;;;;;;;13.18;1.73;;;43.00;27.90;;;;;;5053574;28;20076;-61
2021/07/10 01:53:15;;;;;;;16.05;2.33;;;43.00;27.50;;;;;;5054302;28;20550;-61
2021/07/10 01:55:43;;;;;;;15.85;2.50;;;42.80;27.70;;;;;;5052820;28;20171;-61
2021/07/10 01:58:09;;;;;;;16.92;3.13;;;42.80;27.80;;;;;;5055129;28;20120;-61
2021/07/10 02:00:43;;;;;;;17.02;2.05;;;42.70;27.80;;;;;;5053401;28;20062;-61
2021/07/10 02:03:10;;;;;;;11.00;2.58;;;42.40;28.30;;;;;;5053837;28;20066;-61
2021/07/10 02:05:37;;;;;;;16.77;2.67;;;42.20;28.50;;;;;;5053095;28;20124;-61
2021/07/10 02:08:04;;;;;;;19.98;3.00;;;42.10;28.70;;;;;;5054590;28;20100;-61
2021/07/10 02:10:32;;;;;;;15.27;2.15;;;42.00;28.90;;;;;;5052327;28;20207;-62
2021/07/10 02:13:05;;;;;;;11.45;2.47;;;41.90;29.10;;;;;;5054255;28;20538;-62
2021/07/10 02:15:32;;;;;;;16.75;2.63;;;41.80;29.40;;;;;;5052897;28;20089;-61
2021/07/10 02:17:59;;;;;;;21.67;3.03;;;41.60;29.70;;;;;;5052139;28;20127;-61
2021/07/10 02:20:27;;;;;;;23.08;3.38;;;41.50;29.70;;;;;;5053660;28;20086;-61
2021/07/10 02:22:55;;;;;;;19.88;3.40;;;41.50;29.80;;;;;;5052634;28;20081;-61
2021/07/10 02:25:24;;;;;;;23.77;4.00;;;41.50;30.00;;;;;;5054587;28;20076;-60
2021/07/10 02:27:52;;;;;;;21.30;3.78;;;41.40;30.20;;;;;;5053447;28;20108;-61
2021/07/10 02:30:26;;;;;;;15.98;3.00;;;41.30;30.30;;;;;;5050989;28;20077;-61
2021/07/10 02:32:54;;;;;;;24.20;3.45;;;41.10;30.60;;;;;;5052464;28;20427;-61
2021/07/10 02:35:21;;;;;;;23.50;4.60;;;41.10;30.90;;;;;;5053753;28;20124;-61
2021/07/10 02:37:48;;;;;;;25.58;4.53;;;41.00;31.00;;;;;;5052185;28;20512;-59
2021/07/10 02:40:18;;;;;;;26.67;4.95;;;40.90;31.30;;;;;;5052689;28;20131;-61
2021/07/10 02:42:45;;;;;;;22.15;4.95;;;40.90;31.40;;;;;;5052714;28;20074;-62
2021/07/10 02:45:13;;;;;;;30.98;5.25;;;40.80;31.60;;;;;;5052889;28;20081;-61
2021/07/10 02:47:41;;;;;;;34.70;5.57;;;40.60;31.70;;;;;;5053319;28;20119;-61
2021/07/10 02:50:12;;;;;;;28.65;5.18;;;40.50;32.00;;;;;;5051499;28;20073;-60
2021/07/10 02:52:39;;;;;;;26.48;4.70;;;40.50;32.20;;;;;;5049684;28;20082;-61
2021/07/10 02:55:06;;;;;;;26.65;4.97;;;40.40;32.40;;;;;;5052724;28;20185;-61
2021/07/10 02:57:33;;;;;;;37.95;5.38;;;40.30;32.90;;;;;;5052867;28;20562;-60
2021/07/10 03:00:00;;;;;;;28.63;4.80;;;40.20;32.70;;;;;;5053905;28;20097;-62
2021/07/10 03:02:26;;;;;;;31.25;5.88;;;40.20;32.90;;;;;;5052552;28;20156;-62
2021/07/10 03:04:54;;;;;;;32.05;6.53;;;40.10;32.90;;;;;;5051465;28;20169;-61
2021/07/10 03:07:21;;;;;;;36.10;7.10;;;40.00;33.10;;;;;;5051637;28;20077;-60
2021/07/10 03:09:47;;;;;;;32.90;6.53;;;40.00;33.40;;;;;;5052928;28;20122;-60
2021/07/10 03:12:14;;;;;;;30.98;6.75;;;39.70;33.60;;;;;;5051837;28;20596;-61
2021/07/10 03:14:40;;;;;;;28.98;6.35;;;39.70;33.80;;;;;;5051622;28;20074;-61
2021/07/10 03:17:07;;;;;;;33.17;7.32;;;39.60;33.90;;;;;;5052445;28;20188;-62
2021/07/10 03:19:33;;;;;;;31.08;7.43;;;39.50;33.90;;;;;;5052050;28;20073;-60
2021/07/10 03:22:00;;;;;;;32.15;8.05;;;39.60;34.00;;;;;;5053019;28;20070;-61
2021/07/10 03:24:26;;;;;;;28.15;7.28;;;39.40;33.90;;;;;;5051898;28;20147;-61
2021/07/10 03:26:53;;;;;;;41.45;7.30;;;39.30;33.90;;;;;;5051330;28;20533;-60
2021/07/10 03:29:19;;;;;;;29.25;7.28;;;39.30;34.00;;;;;;5051989;28;20427;-60
2021/07/10 03:31:46;;;;;;;31.50;7.40;;;39.20;34.10;;;;;;5050284;28;20069;-59
2021/07/10 03:34:13;;;;;;;31.83;7.85;;;39.20;34.00;;;;;;5051172;28;20089;-60
2021/07/10 03:36:39;;;;;;;39.20;8.30;;;39.10;34.00;;;;;;5049953;28;20565;-61
2021/07/10 03:39:06;;;;;;;34.60;7.18;;;39.10;34.00;;;;;;5052618;28;20445;-60
2021/07/10 03:41:32;;;;;;;35.45;6.50;;;39.10;34.20;;;;;;5051764;28;20100;-60
2021/07/10 03:43:59;;;;;;;29.13;5.95;;;39.00;34.20;;;;;;5053053;28;21610;-61
2021/07/10 03:46:25;;;;;;;34.58;7.00;;;38.90;34.20;;;;;;5051911;28;20070;-59
2021/07/10 03:48:52;;;;;;;31.30;6.38;;;38.90;34.30;;;;;;5051898;28;20164;-60
2021/07/10 03:51:19;;;;;;;29.98;6.38;;;38.90;34.40;;;;;;5051710;28;20161;-60
2021/07/10 03:53:45;;;;;;;36.00;6.43;;;38.80;34.40;;;;;;5051628;28;20512;-60
2021/07/10 03:56:14;;;;;;;31.25;6.07;;;38.90;34.40;;;;;;5051446;28;20065;-60
2021/07/10 03:58:41;;;;;;;40.80;6.72;;;38.80;35.00;;;;;;5051701;28;20128;-60
2021/07/10 04:01:07;;;;;;;36.78;6.22;;;38.70;34.60;;;;;;5051818;28;20073;-60
2021/07/10 04:03:34;;;;;;;34.40;6.75;;;38.60;34.80;;;;;;5052171;28;20085;-58
2021/07/10 04:06:00;;;;;;;30.40;6.03;;;38.60;35.00;;;;;;5050983;28;20104;-58
2021/07/10 04:08:27;;;;;;;38.55;6.25;;;38.50;35.20;;;;;;5053361;28;20427;-61
2021/07/10 04:10:53;;;;;;;27.95;5.22;;;38.40;35.50;;;;;;5051709;28;20127;-60
2021/07/10 04:13:20;;;;;;;44.25;5.80;;;38.30;35.20;;;;;;5051508;28;20097;-61
2021/07/10 04:15:46;;;;;;;38.88;5.47;;;38.20;35.30;;;;;;5051135;28;20073;-60
2021/07/10 04:18:13;;;;;;;29.17;5.40;;;38.20;35.50;;;;;;5051034;28;20135;-59
2021/07/10 04:20:39;;;;;;;21.48;6.05;;;38.20;35.40;;;;;;5050949;28;20078;-60
2021/07/10 04:23:06;;;;;;;46.42;7.47;;;38.20;35.40;;;;;;5051481;28;20080;-60
2021/07/10 04:25:33;;;;;;;44.15;8.02;;;38.20;35.60;;;;;;5050288;28;20434;-58
2021/07/10 04:28:00;;;;;;;35.50;6.60;;;38.10;35.50;;;;;;5049600;28;20543;-59
2021/07/10 04:30:26;;;;;;;57.70;7.13;;;38.10;35.40;;;;;;5051742;28;20089;-59
2021/07/10 04:32:53;;;;;;;35.95;6.78;;;38.00;35.40;;;;;;5051148;28;20152;-57
2021/07/10 04:35:20;;;;;;;40.58;7.50;;;38.00;35.40;;;;;;5052402;28;20085;-60
2021/07/10 04:37:48;;;;;;;51.58;7.85;;;38.00;35.40;;;;;;5050955;28;20113;-60
2021/07/10 04:40:15;;;;;;;44.70;7.40;;;37.90;35.40;;;;;;5051376;28;20073;-61
2021/07/10 04:42:42;;;;;;;60.80;7.75;;;37.90;35.30;;;;;;5051018;28;20494;-60
2021/07/10 04:45:10;;;;;;;39.92;7.72;;;37.80;35.40;;;;;;5050738;28;20084;-60
2021/07/10 04:47:37;;;;;;;60.50;7.25;;;37.80;35.30;;;;;;5050437;28;20077;-60
2021/07/10 04:50:06;;;;;;;47.13;6.78;;;37.90;35.30;;;;;;5051005;28;20079;-60
2021/07/10 04:52:32;;;;;;;29.17;6.25;;;37.90;35.30;;;;;;5050788;28;20518;-60
2021/07/10 04:54:59;;;;;;;28.48;4.82;;;37.80;35.30;;;;;;5051289;28;20105;-60
2021/07/10 04:57:25;;;;;;;32.45;4.20;;;37.80;35.60;;;;;;5050189;28;20171;-61
2021/07/10 04:59:52;;;;;;;34.15;4.25;;;37.70;35.90;;;;;;5049598;28;20077;-59
2021/07/10 05:02:19;;;;;;;30.98;3.90;;;37.60;36.20;;;;;;5050884;28;20077;-60
2021/07/10 05:04:45;;;;;;;26.00;3.58;;;37.60;36.60;;;;;;5050558;28;20430;-59
2021/07/10 05:07:12;;;;;;;20.00;3.40;;;37.50;37.00;;;;;;5050463;28;20069;-60
2021/07/10 05:09:38;;;;;;;24.92;4.05;;;37.50;38.20;;;;;;5050826;28;20187;-59
2021/07/10 05:12:05;;;;;;;28.23;3.65;;;37.30;36.80;;;;;;5048424;28;20419;-61
2021/07/10 05:14:32;;;;;;;23.70;3.47;;;37.40;37.20;;;;;;5050300;28;20073;-60
2021/07/10 05:16:58;;;;;;;36.55;4.28;;;37.20;37.40;;;;;;5049541;28;20120;-60
2021/07/10 05:19:25;;;;;;;23.70;3.80;;;37.20;37.50;;;;;;5049955;28;20098;-59
2021/07/10 05:21:51;;;;;;;19.05;3.38;;;37.00;38.10;;;;;;5055819;28;20077;-60
2021/07/10 05:24:18;;;;;;;20.95;3.38;;;37.00;38.30;;;;;;5049862;28;20077;-59
2021/07/10 05:26:44;;;;;;;19.90;3.20;;;36.80;38.60;;;;;;5049238;28;20546;-59
2021/07/10 05:29:11;;;;;;;16.35;3.38;;;36.80;39.00;;;;;;5050041;28;20096;-60
2021/07/10 05:31:37;;;;;;;18.33;2.50;;;36.80;39.00;;;;;;5049855;28;20074;-61
2021/07/10 05:34:04;;;;;;;15.93;2.80;;;36.70;39.30;;;;;;5050708;28;20089;-64
2021/07/10 05:36:30;;;;;;;10.65;2.35;;;36.60;39.60;;;;;;5050580;28;20070;-61
2021/07/10 05:38:57;;;;;;;10.27;2.47;;;36.60;39.50;;;;;;5050785;28;20152;-61
2021/07/10 05:41:24;;;;;;;10.45;2.30;;;36.50;39.70;;;;;;5049733;28;20101;-61
2021/07/10 05:43:50;;;;;;;10.57;2.58;;;36.40;39.80;;;;;;5049994;28;20082;-61
2021/07/10 05:46:17;;;;;;;17.30;2.50;;;36.40;40.20;;;;;;5050334;28;20069;-59
2021/07/10 05:48:43;;;;;;;11.07;2.38;;;36.40;40.30;;;;;;5053179;28;20105;-59
2021/07/10 05:51:10;;;;;;;11.70;2.67;;;36.40;40.60;;;;;;5049875;28;20489;-58
2021/07/10 05:53:36;;;;;;;17.27;2.90;;;36.40;40.60;;;;;;5049772;28;20228;-61
2021/07/10 05:56:03;;;;;;;14.93;2.55;;;36.40;40.80;;;;;;5050347;28;20523;-61
2021/07/10 05:58:30;;;;;;;8.02;2.42;;;36.20;40.30;;;;;;5048393;28;20124;-59
2021/07/10 06:00:56;;;;;;;14.57;2.47;;;36.30;41.10;;;;;;5050157;28;20161;-63
2021/07/10 06:03:23;;;;;;;13.88;2.67;;;36.30;41.10;;;;;;5049582;28;20086;-60
2021/07/10 06:05:50;;;;;;;21.85;3.03;;;36.30;41.10;;;;;;5050313;28;20084;-58
2021/07/10 06:08:16;;;;;;;11.88;3.05;;;36.20;41.20;;;;;;5050743;28;20088;-59
2021/07/10 06:10:43;;;;;;;13.57;3.40;;;36.20;41.30;;;;;;5049456;28;20089;-61
2021/07/10 06:13:10;;;;;;;12.10;2.53;;;36.10;41.70;;;;;;5050043;28;20089;-61
2021/07/10 06:15:36;;;;;;;17.67;3.60;;;36.00;42.00;;;;;;5049617;28;20128;-59
2021/07/10 06:18:03;;;;;;;16.10;3.50;;;35.90;42.20;;;;;;5049400;28;20097;-63
2021/07/10 06:20:30;;;;;;;15.07;3.50;;;35.90;42.50;;;;;;5049863;28;20427;-59
2021/07/10 06:22:58;;;;;;;13.43;3.60;;;35.80;42.80;;;;;;5049674;28;20078;-59
2021/07/10 06:25:24;;;;;;;18.52;4.53;;;35.30;42.70;;;;;;5050078;28;20084;-61
2021/07/10 06:27:51;;;;;;;18.98;3.83;;;35.70;43.00;;;;;;5050979;28;20078;-60
2021/07/10 06:30:19;;;;;;;11.68;2.60;;;35.70;43.20;;;;;;5053575;28;20156;-58
2021/07/10 06:32:46;;;;;;;11.95;3.05;;;35.70;43.30;;;;;;5053819;28;20081;-60
2021/07/10 06:35:13;;;;;;;21.88;2.55;;;35.70;43.60;;;;;;5053565;28;20077;-60
2021/07/10 06:37:40;;;;;;;15.75;2.63;;;35.60;44.00;;;;;;5052962;28;20093;-61
2021/07/10 06:40:10;;;;;;;15.60;2.50;;;35.50;44.00;;;;;;5053576;28;20209;-61
2021/07/10 06:42:37;;;;;;;13.13;2.75;;;35.40;44.10;;;;;;5053129;28;20073;-59
2021/07/10 06:45:06;;;;;;;13.38;2.70;;;35.40;44.50;;;;;;5052674;28;20080;-61
2021/07/10 06:47:32;;;;;;;16.45;3.20;;;35.30;44.70;;;;;;5066950;28;20074;-59
2021/07/10 06:49:59;;;;;;;11.10;2.78;;;35.30;44.90;;;;;;5053292;28;20072;-60
2021/07/10 06:52:26;;;;;;;13.07;2.53;;;35.20;45.10;;;;;;5052873;28;20121;-61
2021/07/10 06:54:53;;;;;;;13.55;2.83;;;35.20;45.10;;;;;;5053164;28;20069;-61
2021/07/10 06:57:20;;;;;;;13.77;2.88;;;35.10;45.20;;;;;;5051863;28;20112;-60
2021/07/10 06:59:46;;;;;;;10.50;3.20;;;35.10;45.40;;;;;;5052950;28;20088;-61
2021/07/10 07:02:13;;;;;;;12.40;3.17;;;35.10;45.40;;;;;;5052472;28;20208;-60
2021/07/10 07:04:39;;;;;;;21.30;3.35;;;35.20;45.60;;;;;;5052725;28;20471;-61
2021/07/10 07:07:06;;;;;;;11.75;3.22;;;35.10;45.40;;;;;;5052432;28;20080;-61
2021/07/10 07:09:33;;;;;;;10.65;3.20;;;35.10;45.60;;;;;;5051336;28;20093;-60
2021/07/10 07:12:00;;;;;;;13.60;3.33;;;35.10;45.70;;;;;;5051605;28;20073;-59
2021/07/10 07:14:27;;;;;;;12.70;3.30;;;35.10;45.80;;;;;;5051359;28;20082;-60
2021/07/10 07:16:58;;;;;;;9.48;3.00;;;35.10;46.10;;;;;;5051728;28;20104;-60
2021/07/10 07:19:30;;;;;;;12.85;3.10;;;35.00;46.10;;;;;;5053009;28;20478;-60
2021/07/10 07:21:58;;;;;;;15.07;3.83;;;35.10;46.10;;;;;;5052357;28;20562;-60
2021/07/10 07:24:24;;;;;;;10.65;3.53;;;35.10;46.00;;;;;;5054936;28;20522;-60
2021/07/10 07:26:51;;;;;;;15.40;3.70;;;35.10;47.30;;;;;;5052386;28;20070;-61
2021/07/10 07:29:17;;;;;;;16.65;3.78;;;35.10;46.10;;;;;;5050691;28;20164;-61
2021/07/10 07:31:46;;;;;;;14.13;3.65;;;35.10;46.10;;;;;;5052153;28;20124;-61
2021/07/10 07:34:12;;;;;;;14.05;3.33;;;35.10;46.30;;;;;;5050125;28;20069;-60
2021/07/10 07:36:39;;;;;;;12.02;3.47;;;35.00;46.60;;;;;;5052565;28;20193;-60
2021/07/10 07:39:07;;;;;;;17.27;3.33;;;35.00;47.20;;;;;;5052311;28;20575;-60
2021/07/10 07:41:35;;;;;;;16.35;3.40;;;35.00;47.00;;;;;;5051065;28;20073;-61
2021/07/10 07:44:02;;;;;;;14.80;3.88;;;34.90;47.60;;;;;;5053020;28;20070;-59
2021/07/10 07:46:30;;;;;;;13.27;2.90;;;34.80;47.80;;;;;;5052293;28;20128;-60
2021/07/10 07:48:57;;;;;;;12.68;2.88;;;34.80;48.40;;;;;;5050911;28;20515;-59
2021/07/10 07:51:24;;;;;;;17.92;2.75;;;34.60;49.10;;;;;;5050644;28;20073;-60
2021/07/10 07:53:50;;;;;;;13.20;3.00;;;34.60;49.40;;;;;;5051572;28;20539;-60
2021/07/10 07:56:18;;;;;;;13.35;2.80;;;34.60;49.80;;;;;;5051555;28;20074;-61
2021/07/10 07:58:44;;;;;;;13.98;2.42;;;34.50;50.10;;;;;;5051692;28;20137;-62
2021/07/10 08:01:12;;;;;;;9.18;2.42;;;34.40;50.30;;;;;;5050981;28;20156;-61
2021/07/10 08:03:38;;;;;;;12.88;2.70;;;34.40;50.50;;;;;;5051751;28;20096;-60
2021/07/10 08:06:05;;;;;;;12.75;2.95;;;34.50;50.50;;;;;;5050915;28;20074;-61
2021/07/10 08:08:36;;;;;;;9.45;3.35;;;34.40;50.90;;;;;;5052922;28;20084;-61
2021/07/10 08:11:07;;;;;;;12.93;2.42;;;34.30;51.30;;;;;;5051939;28;20093;-60
2021/07/10 08:13:34;;;;;;;14.25;2.83;;;34.30;51.50;;;;;;5049365;28;20101;-61
2021/07/10 08:16:01;;;;;;;17.88;3.40;;;34.30;51.70;;;;;;5051192;28;20077;-61
2021/07/10 08:18:27;;;;;;;9.40;3.05;;;34.30;52.20;;;;;;5051103;28;20101;-61
2021/07/10 08:20:54;;;;;;;20.55;3.25;;;34.20;53.00;;;;;;5050858;28;20549;-60
2021/07/10 08:23:21;;;;;;;18.58;3.60;;;34.20;52.70;;;;;;5051039;28;20155;-61
2021/07/10 08:25:47;;;;;;;23.40;4.53;;;34.20;52.90;;;;;;5050812;28;20081;-61
2021/07/10 08:28:14;;;;;;;16.10;3.30;;;34.10;53.70;;;;;;5050495;28;20542;-60
2021/07/10 08:30:41;;;;;;;12.13;2.90;;;34.10;53.30;;;;;;5050596;28;20602;-61
2021/07/10 08:33:09;;;;;;;18.63;3.90;;;34.00;53.30;;;;;;5051243;28;20076;-59
2021/07/10 08:35:36;;;;;;;12.15;3.22;;;34.00;53.50;;;;;;5050849;28;20092;-60
2021/07/10 08:38:03;;;;;;;15.98;3.60;;;34.10;53.40;;;;;;5051906;28;20105;-60
2021/07/10 08:40:29;;;;;;;14.85;4.20;;;34.10;53.30;;;;;;5050337;28;20076;-60
2021/07/10 08:42:56;;;;;;;17.02;3.28;;;34.00;53.60;;;;;;5051360;28;20073;-61
2021/07/10 08:45:22;;;;;;;14.10;2.90;;;33.90;54.10;;;;;;5049465;28;20078;-61
2021/07/10 08:47:49;;;;;;;15.25;3.70;;;33.90;54.00;;;;;;5050797;28;20084;-60
2021/07/10 08:50:19;;;;;;;17.63;3.42;;;33.90;54.00;;;;;;5050127;28;20073;-59
2021/07/10 08:52:45;;;;;;;18.52;3.33;;;33.90;54.50;;;;;;5049613;28;20164;-62
2021/07/10 08:55:14;;;;;;;12.43;3.30;;;33.80;54.50;;;;;;5048898;28;20197;-61
2021/07/10 08:57:41;;;;;;;12.95;2.90;;;33.80;55.00;;;;;;5048308;28;20120;-61
2021/07/10 09:00:13;;;;;;;11.80;3.28;;;33.80;54.80;;;;;;5050720;28;20519;-61
2021/07/10 09:02:43;;;;;;;9.63;3.22;;;33.90;54.60;;;;;;5051417;28;20104;-60
2021/07/10 09:05:11;;;;;;;16.40;3.33;;;33.90;54.90;;;;;;5049047;28;21040;-61
2021/07/10 09:08:21;;;;;;;15.48;2.97;;;33.90;55.20;;;;;;5050115;28;20539;-61
2021/07/10 09:10:54;;;;;;;13.25;2.80;;;33.90;55.10;;;;;;5033463;28;20091;-60
2021/07/10 09:13:32;;;;;;;11.63;2.17;;;33.90;55.40;;;;;;5050176;28;20061;-61
2021/07/10 09:16:25;;;;;;;10.55;2.47;;;33.80;55.90;;;;;;5049911;28;20073;-61
2021/07/10 09:19:00;;;;;;;10.18;2.72;;;33.80;55.70;;;;;;5049322;28;20184;-60
2021/07/10 09:21:45;;;;;;;9.60;2.57;;;33.70;55.90;;;;;;5049148;28;20069;-60
2021/07/10 09:24:32;;;;;;;11.52;2.60;;;33.70;56.50;;;;;;5049710;28;20073;-61
2021/07/10 09:27:04;;;;;;;10.52;2.83;;;33.70;56.40;;;;;;5049654;28;20077;-59
2021/07/10 09:29:46;;;;;;;13.52;2.70;;;33.70;56.40;;;;;;5054176;28;20077;-61
2021/07/10 09:32:23;;;;;;;11.15;2.88;;;33.60;56.60;;;;;;5049142;28;20534;-62
2021/07/10 09:34:55;;;;;;;14.35;2.80;;;33.60;57.10;;;;;;5049870;28;20108;-60
2021/07/10 09:37:24;;;;;;;15.77;3.72;;;33.70;57.00;;;;;;5049972;28;20184;-61
2021/07/10 09:39:55;;;;;;;13.38;2.97;;;33.60;57.30;;;;;;5050268;28;20078;-61
2021/07/10 09:42:30;;;;;;;12.05;2.95;;;33.50;57.50;;;;;;5049854;28;20558;-61
2021/07/10 09:44:56;;;;;;;13.82;2.80;;;33.40;57.80;;;;;;5048879;28;20402;-60
2021/07/10 09:47:42;;;;;;;15.55;3.05;;;33.40;58.10;;;;;;5049727;28;20650;-60
2021/07/10 09:50:16;;;;;;;15.50;3.40;;;33.30;58.60;;;;;;5064811;28;20112;-61
2021/07/10 09:52:43;;;;;;;14.90;3.35;;;33.30;59.70;;;;;;5050045;28;20081;-61
2021/07/10 09:55:17;;;;;;;15.30;3.10;;;33.20;59.30;;;;;;5050042;28;20426;-61
2021/07/10 09:57:45;;;;;;;15.07;3.28;;;33.10;59.90;;;;;;5049896;28;20121;-61
2021/07/10 10:00:15;;;;;;;15.40;3.72;;;33.10;60.30;;;;;;5050947;28;20077;-61
2021/07/10 10:02:45;;;;;;;11.50;2.97;;;33.00;60.80;;;;;;5051549;28;20076;-61
2021/07/10 10:05:17;;;;;;;14.23;3.53;;;33.00;61.60;;;;;;5053293;28;20115;-61
2021/07/10 10:07:55;;;;;;;17.50;3.42;;;33.00;61.80;;;;;;5052991;28;20143;-61
2021/07/10 10:10:27;;;;;;;15.35;3.90;;;32.90;62.10;;;;;;5052897;28;20073;-60
2021/07/10 10:13:09;;;;;;;14.43;3.72;;;32.80;62.50;;;;;;5054158;28;20077;-60
2021/07/10 10:15:42;;;;;;;15.88;3.92;;;32.80;62.80;;;;;;5052836;28;20078;-59
2021/07/10 10:18:11;;;;;;;22.27;4.05;;;32.70;63.20;;;;;;5053317;28;20235;-61
2021/07/10 10:20:39;;;;;;;12.95;3.50;;;32.70;64.00;;;;;;5053482;28;20070;-60
2021/07/10 10:23:07;;;;;;;17.77;3.55;;;32.70;64.20;;;;;;5052255;28;20078;-63
2021/07/10 10:25:34;;;;;;;14.00;4.90;;;32.60;64.40;;;;;;5052093;28;20074;-61
2021/07/10 10:28:04;;;;;;;16.10;5.20;;;32.60;64.90;;;;;;5053404;28;20081;-59
2021/07/10 10:30:31;;;;;;;22.08;6.97;;;32.60;64.80;;;;;;5054032;28;20076;-61
2021/07/10 10:32:58;;;;;;;21.67;4.53;;;32.50;63.70;;;;;;5053171;28;20069;-58
2021/07/10 10:35:25;;;;;;;17.50;4.15;;;32.40;62.70;;;;;;5067172;28;20085;-61
2021/07/10 10:37:52;;;;;;;15.45;3.38;;;32.50;62.60;;;;;;5052402;28;20174;-60
2021/07/10 10:40:24;;;;;;;11.38;3.10;;;32.40;61.30;;;;;;5053214;28;20545;-61
2021/07/10 10:42:58;;;;;;;11.95;3.20;;;32.40;60.50;;;;;;5053231;28;20073;-60
2021/07/10 10:45:29;;;;;;;13.85;3.00;;;32.50;60.10;;;;;;5067048;28;20486;-61
2021/07/10 10:47:56;;;;;;;16.23;3.67;;;32.50;58.70;;;;;;5052105;28;20081;-60
2021/07/10 10:50:27;;;;;;;15.60;3.80;;;32.50;58.00;;;;;;5052115;28;20127;-61
2021/07/10 10:52:56;;;;;;;11.77;2.65;;;32.60;57.50;;;;;;5051672;28;20218;-61
2021/07/10 10:55:32;;;;;;;11.32;3.08;;;32.60;57.10;;;;;;5051819;28;20078;-60
2021/07/10 10:58:00;;;;;;;11.77;3.45;;;32.70;55.90;;;;;;5051254;28;20202;-61
2021/07/10 11:00:39;;;;;;;12.90;2.97;;;32.70;55.60;;;;;;5051982;28;20073;-60
2021/07/10 11:03:07;;;;;;;17.67;3.28;;;32.70;55.30;;;;;;5052966;28;20199;-61
2021/07/10 11:05:34;;;;;;;12.85;3.00;;;32.70;55.00;;;;;;5053318;28;20081;-61
2021/07/10 11:08:21;;;;;;;12.02;3.10;;;32.70;55.00;;;;;;5052994;28;20074;-61
2021/07/10 11:10:56;;;;;;;14.55;3.47;;;32.70;55.00;;;;;;5052080;28;20077;-61
2021/07/10 11:13:40;;;;;;;19.17;3.10;;;32.80;54.90;;;;;;5051546;28;20073;-61
2021/07/10 11:16:11;;;;;;;16.02;3.58;;;32.70;55.00;;;;;;5052210;28;20077;-60
2021/07/10 11:18:55;;;;;;;12.55;3.33;;;32.70;55.10;;;;;;5052158;28;20104;-61
2021/07/10 11:21:44;;;;;;;15.60;3.17;;;32.60;55.00;;;;;;5052203;28;20077;-61
2021/07/10 11:26:44;;;;;;;15.30;3.05;;;32.60;55.10;;;;;;5051962;28;20076;-60
2021/07/10 11:29:34;;;;;;;16.60;3.40;;;32.60;55.20;;;;;;5051523;28;20600;-61
2021/07/10 11:32:15;;;;;;;20.88;4.63;;;32.60;55.20;;;;;;5052284;28;20073;-61
2021/07/10 11:34:43;;;;;;;25.65;5.25;;;32.60;55.00;;;;;;5051144;28;20119;-61
2021/07/10 11:37:18;;;;;;;18.58;5.55;;;32.60;54.80;;;;;;5049946;28;20124;-61
2021/07/10 11:39:53;;;;;;;17.45;4.35;;;32.70;54.90;;;;;;5051240;28;20070;-60
2021/07/10 11:42:25;;;;;;;24.48;5.15;;;32.70;54.90;;;;;;5050077;28;20129;-61
2021/07/10 11:44:57;;;;;;;31.10;7.25;;;32.70;54.80;;;;;;5050950;28;20074;-61
2021/07/10 11:47:34;;;;;;;25.77;8.68;;;32.70;54.90;;;;;;5051504;28;20093;-60
2021/07/10 11:50:05;;;;;;;28.90;8.40;;;32.70;55.20;;;;;;5051365;28;20081;-60
2021/07/10 11:52:32;;;;;;;25.10;7.60;;;32.50;55.70;;;;;;5049990;28;21681;-60
2021/07/10 11:55:00;;;;;;;23.40;7.28;;;32.40;56.10;;;;;;5051444;28;20070;-61
2021/07/10 11:57:34;;;;;;;23.40;7.38;;;32.40;56.10;;;;;;5067393;28;20466;-60
2021/07/10 12:00:01;;;;;;;39.15;8.20;;;32.50;56.20;;;;;;5050630;28;20093;-61
2021/07/10 12:02:30;;;;;;;42.65;7.97;;;32.50;56.10;;;;;;5051390;28;20432;-61
2021/07/10 12:05:07;;;;;;;50.88;8.35;;;32.50;56.20;;;;;;5051257;28;20091;-61
2021/07/10 12:07:41;;;;;;;36.45;6.35;;;32.50;56.30;;;;;;5049619;28;20073;-61
2021/07/10 12:10:11;;;;;;;22.13;4.95;;;32.50;56.30;;;;;;5051109;28;20081;-60
2021/07/10 12:13:15;;;;;;;32.75;4.20;;;32.50;56.20;;;;;;5051649;28;20077;-60
2021/07/10 12:15:53;;;;;;;32.38;3.80;;;32.50;56.40;;;;;;5041620;28;20086;-61
2021/07/10 12:18:22;;;;;;;22.38;3.20;;;32.50;56.60;;;;;;5051398;28;20180;-60
2021/07/10 12:20:51;;;;;;;18.23;3.33;;;32.50;56.60;;;;;;5051903;28;20156;-60
2021/07/10 12:23:19;;;;;;;20.77;3.15;;;32.50;56.80;;;;;;5051106;28;20093;-61
2021/07/10 12:26:00;;;;;;;33.75;3.17;;;32.50;56.80;;;;;;5050869;28;20065;-61
2021/07/10 12:28:45;;;;;;;18.73;3.55;;;32.50;56.90;;;;;;5052048;28;20085;-62
2021/07/10 12:31:32;;;;;;;25.10;3.38;;;32.50;56.90;;;;;;5052024;28;20165;-60
2021/07/10 12:33:58;;;;;;;;;;;32.50;57.00;;;;;;5050728;28;20081;-61
2021/07/10 12:36:39;;;;;;;21.00;4.20;;;32.50;57.30;;;;;;5050344;28;19976;-60
2021/07/10 12:39:15;;;;;;;22.58;4.55;;;32.50;57.50;;;;;;5049907;28;20089;-59
2021/07/10 12:41:49;;;;;;;19.33;3.30;;;32.50;57.60;;;;;;5050281;28;20081;-61
2021/07/10 12:44:31;;;;;;;16.27;3.58;;;32.40;57.70;;;;;;5051182;28;20072;-61
2021/07/10 12:47:02;;;;;;;20.80;3.70;;;32.40;57.70;;;;;;5050001;28;20084;-60
2021/07/10 12:49:47;;;;;;;25.05;3.65;;;32.50;57.80;;;;;;5049688;28;20070;-60